sensor_id;sensor_type;location;lat;lon;timestamp;P1;durP1;ratioP1;P2;durP2;ratioP2
38162;SDS011;23977;53.078;18.248;2023-04-24T00:01:47;24.40;;;17.30;;
38162;SDS011;23977;53.078;18.248;2023-04-24T00:04:14;29.77;;;18.75;;
38162;SDS011;23977;53.078;18.248;2023-04-24T00:06:41;29.15;;;20.02;;
38162;SDS011;23977;53.078;18.248;2023-04-24T00:09:08;33.95;;;21.08;;
38162;SDS011;23977;53.078;18.248;2023-04-24T00:11:35;30.60;;;19.92;;
38162;SDS011;23977;53.078;18.248;2023-04-24T00:14:02;30.52;;;19.60;;
38162;SDS011;23977;53.078;18.248;2023-04-24T00:16:28;32.33;;;19.95;;
38162;SDS011;23977;53.078;18.248;2023-04-24T00:18:54;34.50;;;21.90;;
38162;SDS011;23977;53.078;18.248;2023-04-24T00:21:20;34.67;;;21.52;;
38162;SDS011;23977;53.078;18.248;2023-04-24T00:23:47;34.45;;;22.67;;
38162;SDS011;23977;53.078;18.248;2023-04-24T00:26:13;35.30;;;23.08;;
38162;SDS011;23977;53.078;18.248;2023-04-24T00:28:39;38.30;;;25.38;;
38162;SDS011;23977;53.078;18.248;2023-04-24T00:31:04;32.72;;;22.55;;
38162;SDS011;23977;53.078;18.248;2023-04-24T00:33:30;37.55;;;24.42;;
38162;SDS011;23977;53.078;18.248;2023-04-24T00:35:55;37.40;;;23.63;;
38162;SDS011;23977;53.078;18.248;2023-04-24T00:38:21;37.33;;;25.40;;
38162;SDS011;23977;53.078;18.248;2023-04-24T00:40:48;37.65;;;25.00;;
38162;SDS011;23977;53.078;18.248;2023-04-24T00:43:15;36.80;;;24.92;;
38162;SDS011;23977;53.078;18.248;2023-04-24T00:45:41;37.72;;;25.52;;
38162;SDS011;23977;53.078;18.248;2023-04-24T00:48:07;40.58;;;25.80;;
38162;SDS011;23977;53.078;18.248;2023-04-24T00:50:35;37.33;;;25.10;;
38162;SDS011;23977;53.078;18.248;2023-04-24T00:53:01;36.15;;;24.17;;
38162;SDS011;23977;53.078;18.248;2023-04-24T00:55:26;35.88;;;23.55;;
38162;SDS011;23977;53.078;18.248;2023-04-24T00:57:52;36.92;;;24.35;;
38162;SDS011;23977;53.078;18.248;2023-04-24T01:00:18;38.78;;;25.95;;
38162;SDS011;23977;53.078;18.248;2023-04-24T01:02:44;38.10;;;25.33;;
38162;SDS011;23977;53.078;18.248;2023-04-24T01:05:13;40.88;;;25.95;;
38162;SDS011;23977;53.078;18.248;2023-04-24T01:07:40;39.42;;;24.88;;
38162;SDS011;23977;53.078;18.248;2023-04-24T01:10:09;36.95;;;25.00;;
38162;SDS011;23977;53.078;18.248;2023-04-24T01:12:35;35.05;;;24.20;;
38162;SDS011;23977;53.078;18.248;2023-04-24T01:15:01;38.00;;;25.25;;
38162;SDS011;23977;53.078;18.248;2023-04-24T01:17:29;40.17;;;26.80;;
38162;SDS011;23977;53.078;18.248;2023-04-24T01:20:04;39.15;;;25.63;;
38162;SDS011;23977;53.078;18.248;2023-04-24T01:22:34;38.97;;;26.20;;
38162;SDS011;23977;53.078;18.248;2023-04-24T01:25:02;40.58;;;26.85;;
38162;SDS011;23977;53.078;18.248;2023-04-24T01:27:29;38.53;;;26.00;;
38162;SDS011;23977;53.078;18.248;2023-04-24T01:29:55;40.25;;;25.70;;
38162;SDS011;23977;53.078;18.248;2023-04-24T01:32:23;41.33;;;26.17;;
38162;SDS011;23977;53.078;18.248;2023-04-24T01:34:50;37.47;;;26.05;;
38162;SDS011;23977;53.078;18.248;2023-04-24T01:37:17;38.08;;;27.05;;
38162;SDS011;23977;53.078;18.248;2023-04-24T01:39:47;40.35;;;25.98;;
38162;SDS011;23977;53.078;18.248;2023-04-24T01:42:18;40.53;;;26.38;;
38162;SDS011;23977;53.078;18.248;2023-04-24T01:44:57;39.88;;;25.50;;
38162;SDS011;23977;53.078;18.248;2023-04-24T01:47:29;37.20;;;25.08;;
38162;SDS011;23977;53.078;18.248;2023-04-24T01:49:59;35.75;;;25.02;;
38162;SDS011;23977;53.078;18.248;2023-04-24T01:52:26;40.90;;;26.02;;
38162;SDS011;23977;53.078;18.248;2023-04-24T01:54:56;37.22;;;25.55;;
38162;SDS011;23977;53.078;18.248;2023-04-24T01:57:26;37.08;;;25.95;;
38162;SDS011;23977;53.078;18.248;2023-04-24T01:59:58;40.50;;;26.55;;
38162;SDS011;23977;53.078;18.248;2023-04-24T02:02:32;41.88;;;27.90;;
38162;SDS011;23977;53.078;18.248;2023-04-24T02:05:05;38.55;;;26.83;;
38162;SDS011;23977;53.078;18.248;2023-04-24T02:07:39;37.65;;;24.67;;
38162;SDS011;23977;53.078;18.248;2023-04-24T02:10:16;33.90;;;23.70;;
38162;SDS011;23977;53.078;18.248;2023-04-24T02:12:48;31.63;;;22.70;;
38162;SDS011;23977;53.078;18.248;2023-04-24T02:15:23;31.70;;;22.65;;
38162;SDS011;23977;53.078;18.248;2023-04-24T02:17:55;31.67;;;24.23;;
38162;SDS011;23977;53.078;18.248;2023-04-24T02:20:27;32.78;;;23.60;;
38162;SDS011;23977;53.078;18.248;2023-04-24T02:22:54;32.25;;;22.85;;
38162;SDS011;23977;53.078;18.248;2023-04-24T02:25:26;29.17;;;21.48;;
38162;SDS011;23977;53.078;18.248;2023-04-24T02:27:56;29.40;;;22.05;;
38162;SDS011;23977;53.078;18.248;2023-04-24T02:30:35;30.67;;;22.48;;
38162;SDS011;23977;53.078;18.248;2023-04-24T02:33:05;29.08;;;22.08;;
38162;SDS011;23977;53.078;18.248;2023-04-24T02:35:31;26.98;;;20.65;;
38162;SDS011;23977;53.078;18.248;2023-04-24T02:38:04;28.23;;;20.83;;
38162;SDS011;23977;53.078;18.248;2023-04-24T02:40:41;31.55;;;21.75;;
38162;SDS011;23977;53.078;18.248;2023-04-24T02:43:10;28.27;;;21.00;;
38162;SDS011;23977;53.078;18.248;2023-04-24T02:45:45;26.45;;;20.65;;
38162;SDS011;23977;53.078;18.248;2023-04-24T02:48:14;29.13;;;22.08;;
38162;SDS011;23977;53.078;18.248;2023-04-24T02:50:46;28.58;;;21.83;;
38162;SDS011;23977;53.078;18.248;2023-04-24T02:53:19;27.70;;;20.67;;
38162;SDS011;23977;53.078;18.248;2023-04-24T02:55:54;27.15;;;20.35;;
38162;SDS011;23977;53.078;18.248;2023-04-24T02:58:28;26.85;;;21.00;;
38162;SDS011;23977;53.078;18.248;2023-04-24T03:00:54;28.88;;;21.77;;
38162;SDS011;23977;53.078;18.248;2023-04-24T03:03:29;27.15;;;21.95;;
38162;SDS011;23977;53.078;18.248;2023-04-24T03:05:56;29.65;;;22.17;;
38162;SDS011;23977;53.078;18.248;2023-04-24T03:08:31;31.35;;;22.58;;
38162;SDS011;23977;53.078;18.248;2023-04-24T03:11:00;29.42;;;22.23;;
38162;SDS011;23977;53.078;18.248;2023-04-24T03:13:28;28.13;;;21.70;;
38162;SDS011;23977;53.078;18.248;2023-04-24T03:15:57;27.92;;;20.90;;
38162;SDS011;23977;53.078;18.248;2023-04-24T03:18:34;30.08;;;22.27;;
38162;SDS011;23977;53.078;18.248;2023-04-24T03:21:07;28.20;;;21.77;;
38162;SDS011;23977;53.078;18.248;2023-04-24T03:23:45;32.17;;;22.83;;
38162;SDS011;23977;53.078;18.248;2023-04-24T03:26:15;28.65;;;21.48;;
38162;SDS011;23977;53.078;18.248;2023-04-24T03:28:50;31.23;;;22.08;;
38162;SDS011;23977;53.078;18.248;2023-04-24T03:31:24;30.17;;;22.10;;
38162;SDS011;23977;53.078;18.248;2023-04-24T03:33:54;28.27;;;21.40;;
38162;SDS011;23977;53.078;18.248;2023-04-24T03:36:26;29.52;;;22.25;;
38162;SDS011;23977;53.078;18.248;2023-04-24T03:38:59;31.17;;;22.23;;
38162;SDS011;23977;53.078;18.248;2023-04-24T03:41:28;34.63;;;23.35;;
38162;SDS011;23977;53.078;18.248;2023-04-24T03:44:00;34.50;;;24.65;;
38162;SDS011;23977;53.078;18.248;2023-04-24T03:46:29;33.53;;;23.77;;
38162;SDS011;23977;53.078;18.248;2023-04-24T03:48:59;32.58;;;22.27;;
38162;SDS011;23977;53.078;18.248;2023-04-24T03:51:26;28.88;;;21.52;;
38162;SDS011;23977;53.078;18.248;2023-04-24T03:54:01;28.58;;;20.63;;
38162;SDS011;23977;53.078;18.248;2023-04-24T03:56:27;27.45;;;20.25;;
38162;SDS011;23977;53.078;18.248;2023-04-24T03:58:56;24.83;;;19.30;;
38162;SDS011;23977;53.078;18.248;2023-04-24T04:01:40;27.50;;;20.42;;
38162;SDS011;23977;53.078;18.248;2023-04-24T04:04:18;24.83;;;20.05;;
38162;SDS011;23977;53.078;18.248;2023-04-24T04:06:52;24.23;;;18.20;;
38162;SDS011;23977;53.078;18.248;2023-04-24T04:09:19;25.88;;;18.80;;
38162;SDS011;23977;53.078;18.248;2023-04-24T04:11:45;26.15;;;19.20;;
38162;SDS011;23977;53.078;18.248;2023-04-24T04:14:18;26.27;;;19.02;;
38162;SDS011;23977;53.078;18.248;2023-04-24T04:16:47;29.23;;;20.40;;
38162;SDS011;23977;53.078;18.248;2023-04-24T04:19:19;24.10;;;18.40;;
38162;SDS011;23977;53.078;18.248;2023-04-24T04:21:56;25.45;;;18.20;;
38162;SDS011;23977;53.078;18.248;2023-04-24T04:24:25;24.63;;;19.52;;
38162;SDS011;23977;53.078;18.248;2023-04-24T04:26:54;23.38;;;17.50;;
38162;SDS011;23977;53.078;18.248;2023-04-24T04:29:26;23.50;;;18.17;;
38162;SDS011;23977;53.078;18.248;2023-04-24T04:32:05;25.65;;;18.92;;
38162;SDS011;23977;53.078;18.248;2023-04-24T04:34:40;24.13;;;19.60;;
38162;SDS011;23977;53.078;18.248;2023-04-24T04:37:11;29.92;;;24.27;;
38162;SDS011;23977;53.078;18.248;2023-04-24T04:39:48;28.38;;;21.25;;
38162;SDS011;23977;53.078;18.248;2023-04-24T04:42:19;24.85;;;18.30;;
38162;SDS011;23977;53.078;18.248;2023-04-24T04:44:56;22.27;;;17.00;;
38162;SDS011;23977;53.078;18.248;2023-04-24T04:47:26;21.10;;;16.42;;
38162;SDS011;23977;53.078;18.248;2023-04-24T04:50:05;22.15;;;17.30;;
38162;SDS011;23977;53.078;18.248;2023-04-24T04:52:34;20.67;;;16.05;;
38162;SDS011;23977;53.078;18.248;2023-04-24T04:55:04;21.23;;;16.08;;
38162;SDS011;23977;53.078;18.248;2023-04-24T04:57:33;19.98;;;15.93;;
38162;SDS011;23977;53.078;18.248;2023-04-24T05:00:00;21.58;;;15.68;;
38162;SDS011;23977;53.078;18.248;2023-04-24T05:02:39;21.00;;;15.60;;
38162;SDS011;23977;53.078;18.248;2023-04-24T05:05:06;19.05;;;14.63;;
38162;SDS011;23977;53.078;18.248;2023-04-24T05:07:35;18.90;;;15.35;;
38162;SDS011;23977;53.078;18.248;2023-04-24T05:10:05;17.95;;;14.65;;
38162;SDS011;23977;53.078;18.248;2023-04-24T05:12:31;17.60;;;13.73;;
38162;SDS011;23977;53.078;18.248;2023-04-24T05:15:00;16.73;;;13.80;;
38162;SDS011;23977;53.078;18.248;2023-04-24T05:17:29;17.17;;;14.20;;
38162;SDS011;23977;53.078;18.248;2023-04-24T05:20:23;16.83;;;13.45;;
38162;SDS011;23977;53.078;18.248;2023-04-24T05:22:50;17.67;;;13.30;;
38162;SDS011;23977;53.078;18.248;2023-04-24T05:25:19;17.45;;;12.82;;
38162;SDS011;23977;53.078;18.248;2023-04-24T05:27:53;15.55;;;12.50;;
38162;SDS011;23977;53.078;18.248;2023-04-24T05:30:22;17.58;;;13.10;;
38162;SDS011;23977;53.078;18.248;2023-04-24T05:32:53;15.82;;;13.02;;
38162;SDS011;23977;53.078;18.248;2023-04-24T05:35:21;17.75;;;13.65;;
38162;SDS011;23977;53.078;18.248;2023-04-24T05:37:53;15.60;;;13.27;;
38162;SDS011;23977;53.078;18.248;2023-04-24T05:40:26;14.95;;;13.32;;
38162;SDS011;23977;53.078;18.248;2023-04-24T05:42:57;19.75;;;14.38;;
38162;SDS011;23977;53.078;18.248;2023-04-24T05:45:29;18.60;;;14.02;;
38162;SDS011;23977;53.078;18.248;2023-04-24T05:48:00;16.10;;;13.75;;
38162;SDS011;23977;53.078;18.248;2023-04-24T05:50:33;17.10;;;13.50;;
38162;SDS011;23977;53.078;18.248;2023-04-24T05:52:59;16.83;;;13.32;;
38162;SDS011;23977;53.078;18.248;2023-04-24T05:55:27;15.95;;;13.00;;
38162;SDS011;23977;53.078;18.248;2023-04-24T05:57:53;16.70;;;13.35;;
38162;SDS011;23977;53.078;18.248;2023-04-24T06:00:26;18.15;;;13.32;;
38162;SDS011;23977;53.078;18.248;2023-04-24T06:02:52;18.75;;;12.98;;
38162;SDS011;23977;53.078;18.248;2023-04-24T06:05:21;16.33;;;12.02;;
38162;SDS011;23977;53.078;18.248;2023-04-24T06:07:51;12.55;;;11.02;;
38162;SDS011;23977;53.078;18.248;2023-04-24T06:10:20;12.85;;;10.80;;
38162;SDS011;23977;53.078;18.248;2023-04-24T06:12:46;14.18;;;10.43;;
38162;SDS011;23977;53.078;18.248;2023-04-24T06:15:16;13.93;;;9.70;;
38162;SDS011;23977;53.078;18.248;2023-04-24T06:17:58;11.32;;;9.00;;
38162;SDS011;23977;53.078;18.248;2023-04-24T06:20:28;12.00;;;9.20;;
38162;SDS011;23977;53.078;18.248;2023-04-24T06:22:57;11.48;;;8.65;;
38162;SDS011;23977;53.078;18.248;2023-04-24T06:25:35;11.40;;;9.50;;
38162;SDS011;23977;53.078;18.248;2023-04-24T06:28:04;12.68;;;9.45;;
38162;SDS011;23977;53.078;18.248;2023-04-24T06:30:42;13.13;;;9.52;;
38162;SDS011;23977;53.078;18.248;2023-04-24T06:33:13;14.10;;;10.80;;
38162;SDS011;23977;53.078;18.248;2023-04-24T06:35:43;15.98;;;9.95;;
38162;SDS011;23977;53.078;18.248;2023-04-24T06:38:12;12.73;;;10.90;;
38162;SDS011;23977;53.078;18.248;2023-04-24T06:40:39;14.73;;;10.75;;
38162;SDS011;23977;53.078;18.248;2023-04-24T06:43:05;14.88;;;10.95;;
38162;SDS011;23977;53.078;18.248;2023-04-24T06:45:32;15.48;;;11.13;;
38162;SDS011;23977;53.078;18.248;2023-04-24T06:47:58;15.90;;;11.10;;
38162;SDS011;23977;53.078;18.248;2023-04-24T06:50:28;15.52;;;11.20;;
38162;SDS011;23977;53.078;18.248;2023-04-24T06:52:55;16.20;;;12.13;;
38162;SDS011;23977;53.078;18.248;2023-04-24T06:55:21;17.23;;;13.10;;
38162;SDS011;23977;53.078;18.248;2023-04-24T06:57:48;17.17;;;12.40;;
38162;SDS011;23977;53.078;18.248;2023-04-24T07:00:15;14.48;;;11.15;;
38162;SDS011;23977;53.078;18.248;2023-04-24T07:02:42;13.48;;;10.70;;
38162;SDS011;23977;53.078;18.248;2023-04-24T07:05:10;13.57;;;10.77;;
38162;SDS011;23977;53.078;18.248;2023-04-24T07:07:39;13.85;;;10.57;;
38162;SDS011;23977;53.078;18.248;2023-04-24T07:10:06;14.93;;;10.48;;
38162;SDS011;23977;53.078;18.248;2023-04-24T07:12:33;14.45;;;10.30;;
38162;SDS011;23977;53.078;18.248;2023-04-24T07:15:01;15.20;;;10.02;;
38162;SDS011;23977;53.078;18.248;2023-04-24T07:17:27;11.82;;;8.95;;
38162;SDS011;23977;53.078;18.248;2023-04-24T07:19:55;10.98;;;9.15;;
38162;SDS011;23977;53.078;18.248;2023-04-24T07:22:22;10.43;;;8.95;;
38162;SDS011;23977;53.078;18.248;2023-04-24T07:24:49;13.25;;;8.93;;
38162;SDS011;23977;53.078;18.248;2023-04-24T07:27:16;13.35;;;8.77;;
38162;SDS011;23977;53.078;18.248;2023-04-24T07:29:45;12.75;;;8.88;;
38162;SDS011;23977;53.078;18.248;2023-04-24T07:32:12;12.50;;;8.77;;
38162;SDS011;23977;53.078;18.248;2023-04-24T07:34:42;11.13;;;8.65;;
38162;SDS011;23977;53.078;18.248;2023-04-24T07:37:08;11.13;;;8.73;;
38162;SDS011;23977;53.078;18.248;2023-04-24T07:39:37;12.57;;;9.10;;
38162;SDS011;23977;53.078;18.248;2023-04-24T07:42:04;10.82;;;8.82;;
38162;SDS011;23977;53.078;18.248;2023-04-24T07:44:33;13.38;;;10.48;;
38162;SDS011;23977;53.078;18.248;2023-04-24T07:47:01;12.02;;;9.88;;
38162;SDS011;23977;53.078;18.248;2023-04-24T07:49:29;12.40;;;10.43;;
38162;SDS011;23977;53.078;18.248;2023-04-24T07:51:57;12.05;;;9.70;;
38162;SDS011;23977;53.078;18.248;2023-04-24T07:54:29;11.98;;;9.60;;
38162;SDS011;23977;53.078;18.248;2023-04-24T07:56:57;13.30;;;9.55;;
38162;SDS011;23977;53.078;18.248;2023-04-24T07:59:26;12.18;;;9.27;;
38162;SDS011;23977;53.078;18.248;2023-04-24T08:01:52;12.63;;;9.40;;
38162;SDS011;23977;53.078;18.248;2023-04-24T08:04:20;12.88;;;9.80;;
38162;SDS011;23977;53.078;18.248;2023-04-24T08:06:47;12.63;;;10.48;;
38162;SDS011;23977;53.078;18.248;2023-04-24T08:09:17;12.75;;;9.95;;
38162;SDS011;23977;53.078;18.248;2023-04-24T08:11:43;12.68;;;9.55;;
38162;SDS011;23977;53.078;18.248;2023-04-24T08:14:10;13.32;;;8.90;;
38162;SDS011;23977;53.078;18.248;2023-04-24T08:16:38;11.95;;;8.65;;
38162;SDS011;23977;53.078;18.248;2023-04-24T08:19:12;12.73;;;9.23;;
38162;SDS011;23977;53.078;18.248;2023-04-24T08:21:39;13.98;;;10.23;;
38162;SDS011;23977;53.078;18.248;2023-04-24T08:24:08;15.15;;;10.35;;
38162;SDS011;23977;53.078;18.248;2023-04-24T08:26:35;15.70;;;10.57;;
38162;SDS011;23977;53.078;18.248;2023-04-24T08:29:01;11.50;;;8.63;;
38162;SDS011;23977;53.078;18.248;2023-04-24T08:31:27;11.52;;;8.30;;
38162;SDS011;23977;53.078;18.248;2023-04-24T08:33:54;11.10;;;7.93;;
38162;SDS011;23977;53.078;18.248;2023-04-24T08:36:20;11.95;;;8.00;;
38162;SDS011;23977;53.078;18.248;2023-04-24T08:38:49;12.18;;;8.70;;
38162;SDS011;23977;53.078;18.248;2023-04-24T08:41:15;11.40;;;8.15;;
38162;SDS011;23977;53.078;18.248;2023-04-24T08:43:49;12.65;;;8.30;;
38162;SDS011;23977;53.078;18.248;2023-04-24T08:46:18;11.32;;;8.38;;
38162;SDS011;23977;53.078;18.248;2023-04-24T08:48:48;12.77;;;8.25;;
38162;SDS011;23977;53.078;18.248;2023-04-24T08:51:16;13.27;;;9.02;;
38162;SDS011;23977;53.078;18.248;2023-04-24T08:53:46;10.07;;;7.88;;
38162;SDS011;23977;53.078;18.248;2023-04-24T08:56:24;12.85;;;8.82;;
38162;SDS011;23977;53.078;18.248;2023-04-24T08:58:57;11.88;;;8.55;;
38162;SDS011;23977;53.078;18.248;2023-04-24T09:01:26;10.18;;;7.70;;
38162;SDS011;23977;53.078;18.248;2023-04-24T09:04:06;12.15;;;7.80;;
38162;SDS011;23977;53.078;18.248;2023-04-24T09:06:35;10.60;;;7.85;;
38162;SDS011;23977;53.078;18.248;2023-04-24T09:09:02;10.60;;;7.93;;
38162;SDS011;23977;53.078;18.248;2023-04-24T09:11:29;12.65;;;9.35;;
38162;SDS011;23977;53.078;18.248;2023-04-24T09:13:57;11.65;;;9.15;;
38162;SDS011;23977;53.078;18.248;2023-04-24T09:16:24;11.18;;;7.88;;
38162;SDS011;23977;53.078;18.248;2023-04-24T09:18:51;13.48;;;9.45;;
38162;SDS011;23977;53.078;18.248;2023-04-24T09:21:17;20.38;;;11.32;;
38162;SDS011;23977;53.078;18.248;2023-04-24T09:24:05;17.83;;;10.85;;
38162;SDS011;23977;53.078;18.248;2023-04-24T09:26:36;10.73;;;7.40;;
38162;SDS011;23977;53.078;18.248;2023-04-24T09:29:08;9.20;;;7.20;;
38162;SDS011;23977;53.078;18.248;2023-04-24T09:31:42;28.67;;;11.75;;
38162;SDS011;23977;53.078;18.248;2023-04-24T09:34:10;20.13;;;8.80;;
38162;SDS011;23977;53.078;18.248;2023-04-24T09:36:36;20.42;;;8.18;;
38162;SDS011;23977;53.078;18.248;2023-04-24T09:39:07;16.40;;;7.70;;
38162;SDS011;23977;53.078;18.248;2023-04-24T09:44:17;21.10;;;8.43;;
38162;SDS011;23977;53.078;18.248;2023-04-24T09:46:54;18.40;;;8.05;;
38162;SDS011;23977;53.078;18.248;2023-04-24T09:49:28;11.35;;;5.93;;
38162;SDS011;23977;53.078;18.248;2023-04-24T09:52:04;9.50;;;5.95;;
38162;SDS011;23977;53.078;18.248;2023-04-24T09:54:39;8.73;;;5.78;;
38162;SDS011;23977;53.078;18.248;2023-04-24T09:57:07;8.40;;;5.93;;
38162;SDS011;23977;53.078;18.248;2023-04-24T09:59:41;11.35;;;6.00;;
38162;SDS011;23977;53.078;18.248;2023-04-24T10:02:20;16.45;;;7.38;;
38162;SDS011;23977;53.078;18.248;2023-04-24T10:04:56;11.77;;;6.40;;
38162;SDS011;23977;53.078;18.248;2023-04-24T10:07:27;10.52;;;5.63;;
38162;SDS011;23977;53.078;18.248;2023-04-24T10:09:53;8.35;;;5.35;;
38162;SDS011;23977;53.078;18.248;2023-04-24T10:12:19;9.13;;;5.50;;
38162;SDS011;23977;53.078;18.248;2023-04-24T10:14:46;8.13;;;5.68;;
38162;SDS011;23977;53.078;18.248;2023-04-24T10:17:14;7.88;;;5.20;;
38162;SDS011;23977;53.078;18.248;2023-04-24T10:19:41;8.52;;;5.63;;
38162;SDS011;23977;53.078;18.248;2023-04-24T10:22:08;8.75;;;5.55;;
38162;SDS011;23977;53.078;18.248;2023-04-24T10:24:37;8.65;;;5.40;;
38162;SDS011;23977;53.078;18.248;2023-04-24T10:27:04;7.97;;;5.80;;
38162;SDS011;23977;53.078;18.248;2023-04-24T10:29:31;8.70;;;5.70;;
38162;SDS011;23977;53.078;18.248;2023-04-24T10:31:57;6.93;;;5.55;;
38162;SDS011;23977;53.078;18.248;2023-04-24T10:34:22;9.63;;;5.70;;
38162;SDS011;23977;53.078;18.248;2023-04-24T10:37:04;9.50;;;6.10;;
38162;SDS011;23977;53.078;18.248;2023-04-24T10:39:30;8.25;;;5.97;;
38162;SDS011;23977;53.078;18.248;2023-04-24T10:41:58;9.80;;;6.28;;
38162;SDS011;23977;53.078;18.248;2023-04-24T10:44:35;21.60;;;12.25;;
38162;SDS011;23977;53.078;18.248;2023-04-24T10:47:05;9.93;;;6.53;;
38162;SDS011;23977;53.078;18.248;2023-04-24T10:49:31;8.35;;;6.47;;
38162;SDS011;23977;53.078;18.248;2023-04-24T10:52:00;9.75;;;6.75;;
38162;SDS011;23977;53.078;18.248;2023-04-24T10:59:47;8.32;;;6.90;;
38162;SDS011;23977;53.078;18.248;2023-04-24T11:02:14;13.02;;;7.03;;
38162;SDS011;23977;53.078;18.248;2023-04-24T11:04:41;11.52;;;7.20;;
38162;SDS011;23977;53.078;18.248;2023-04-24T11:07:11;11.35;;;7.30;;
38162;SDS011;23977;53.078;18.248;2023-04-24T11:09:37;11.32;;;8.30;;
38162;SDS011;23977;53.078;18.248;2023-04-24T11:12:06;11.65;;;7.10;;
38162;SDS011;23977;53.078;18.248;2023-04-24T11:17:35;9.43;;;7.60;;
38162;SDS011;23977;53.078;18.248;2023-04-24T11:20:06;9.95;;;6.85;;
38162;SDS011;23977;53.078;18.248;2023-04-24T11:22:37;9.73;;;7.03;;
38162;SDS011;23977;53.078;18.248;2023-04-24T11:25:10;12.43;;;7.63;;
38162;SDS011;23977;53.078;18.248;2023-04-24T11:27:41;9.63;;;7.32;;
38162;SDS011;23977;53.078;18.248;2023-04-24T11:30:09;11.57;;;7.70;;
38162;SDS011;23977;53.078;18.248;2023-04-24T11:32:40;12.60;;;7.03;;
38162;SDS011;23977;53.078;18.248;2023-04-24T11:35:18;11.70;;;6.53;;
38162;SDS011;23977;53.078;18.248;2023-04-24T11:37:49;14.20;;;8.55;;
38162;SDS011;23977;53.078;18.248;2023-04-24T11:40:17;12.45;;;7.00;;
38162;SDS011;23977;53.078;18.248;2023-04-24T11:42:53;11.90;;;7.65;;
38162;SDS011;23977;53.078;18.248;2023-04-24T11:45:23;11.68;;;7.72;;
38162;SDS011;23977;53.078;18.248;2023-04-24T11:47:50;12.30;;;8.13;;
38162;SDS011;23977;53.078;18.248;2023-04-24T11:50:21;11.98;;;7.60;;
38162;SDS011;23977;53.078;18.248;2023-04-24T11:52:48;9.57;;;6.95;;
38162;SDS011;23977;53.078;18.248;2023-04-24T11:57:52;9.55;;;7.65;;
38162;SDS011;23977;53.078;18.248;2023-04-24T12:00:23;12.98;;;8.38;;
38162;SDS011;23977;53.078;18.248;2023-04-24T12:03:03;13.73;;;8.45;;
38162;SDS011;23977;53.078;18.248;2023-04-24T12:05:33;10.10;;;7.45;;
38162;SDS011;23977;53.078;18.248;2023-04-24T12:08:00;11.45;;;8.23;;
38162;SDS011;23977;53.078;18.248;2023-04-24T12:10:26;13.20;;;9.38;;
38162;SDS011;23977;53.078;18.248;2023-04-24T12:12:53;11.52;;;8.30;;
38162;SDS011;23977;53.078;18.248;2023-04-24T12:15:21;16.70;;;10.73;;
38162;SDS011;23977;53.078;18.248;2023-04-24T12:17:47;10.10;;;7.55;;
38162;SDS011;23977;53.078;18.248;2023-04-24T12:20:15;16.23;;;10.13;;
38162;SDS011;23977;53.078;18.248;2023-04-24T12:22:51;19.33;;;11.48;;
38162;SDS011;23977;53.078;18.248;2023-04-24T12:25:22;13.43;;;8.68;;
